sensor_id;sensor_type;location;lat;lon;timestamp;P1;durP1;ratioP1;P2;durP2;ratioP2
11986;SDS011;6053;51.382;6.768;2022-08-19T00:01:56;2.00;;;1.60;;
11986;SDS011;6053;51.382;6.768;2022-08-19T00:04:28;1.93;;;1.83;;
11986;SDS011;6053;51.382;6.768;2022-08-19T00:06:59;2.00;;;1.90;;
11986;SDS011;6053;51.382;6.768;2022-08-19T00:09:28;1.60;;;1.50;;
11986;SDS011;6053;51.382;6.768;2022-08-19T00:11:57;2.25;;;1.90;;
11986;SDS011;6053;51.382;6.768;2022-08-19T00:14:26;2.10;;;1.90;;
11986;SDS011;6053;51.382;6.768;2022-08-19T00:16:58;2.60;;;1.75;;
11986;SDS011;6053;51.382;6.768;2022-08-19T00:19:28;1.95;;;1.80;;
11986;SDS011;6053;51.382;6.768;2022-08-19T00:21:58;1.80;;;1.70;;
11986;SDS011;6053;51.382;6.768;2022-08-19T00:24:26;2.00;;;1.90;;
11986;SDS011;6053;51.382;6.768;2022-08-19T00:26:55;2.10;;;2.00;;
11986;SDS011;6053;51.382;6.768;2022-08-19T00:29:44;2.17;;;1.80;;
11986;SDS011;6053;51.382;6.768;2022-08-19T00:32:18;2.27;;;1.77;;
11986;SDS011;6053;51.382;6.768;2022-08-19T00:34:48;2.00;;;1.90;;
11986;SDS011;6053;51.382;6.768;2022-08-19T00:37:19;2.05;;;1.90;;
11986;SDS011;6053;51.382;6.768;2022-08-19T00:39:48;1.90;;;1.80;;
11986;SDS011;6053;51.382;6.768;2022-08-19T00:42:18;2.90;;;1.85;;
11986;SDS011;6053;51.382;6.768;2022-08-19T00:44:48;2.10;;;1.92;;
11986;SDS011;6053;51.382;6.768;2022-08-19T00:47:16;2.22;;;2.13;;
11986;SDS011;6053;51.382;6.768;2022-08-19T00:49:47;2.00;;;1.90;;
11986;SDS011;6053;51.382;6.768;2022-08-19T00:52:22;2.10;;;2.00;;
11986;SDS011;6053;51.382;6.768;2022-08-19T00:54:55;1.90;;;1.80;;
11986;SDS011;6053;51.382;6.768;2022-08-19T00:57:26;1.98;;;1.88;;
11986;SDS011;6053;51.382;6.768;2022-08-19T01:00:01;2.10;;;2.00;;
11986;SDS011;6053;51.382;6.768;2022-08-19T01:02:33;2.17;;;2.07;;
11986;SDS011;6053;51.382;6.768;2022-08-19T01:05:04;2.17;;;2.08;;
11986;SDS011;6053;51.382;6.768;2022-08-19T01:07:38;2.50;;;2.30;;
11986;SDS011;6053;51.382;6.768;2022-08-19T01:10:09;2.50;;;2.30;;
11986;SDS011;6053;51.382;6.768;2022-08-19T01:12:41;2.40;;;2.20;;
11986;SDS011;6053;51.382;6.768;2022-08-19T01:15:10;2.38;;;2.20;;
11986;SDS011;6053;51.382;6.768;2022-08-19T01:17:41;2.17;;;2.00;;
11986;SDS011;6053;51.382;6.768;2022-08-19T01:20:12;2.10;;;2.00;;
11986;SDS011;6053;51.382;6.768;2022-08-19T01:22:47;2.10;;;2.00;;
11986;SDS011;6053;51.382;6.768;2022-08-19T01:25:19;2.53;;;2.33;;
11986;SDS011;6053;51.382;6.768;2022-08-19T01:27:51;2.30;;;2.10;;
11986;SDS011;6053;51.382;6.768;2022-08-19T01:30:28;2.47;;;2.30;;
11986;SDS011;6053;51.382;6.768;2022-08-19T01:33:00;2.55;;;2.20;;
11986;SDS011;6053;51.382;6.768;2022-08-19T01:35:31;2.40;;;2.20;;
11986;SDS011;6053;51.382;6.768;2022-08-19T01:38:05;2.27;;;2.10;;
11986;SDS011;6053;51.382;6.768;2022-08-19T01:40:38;2.58;;;2.38;;
11986;SDS011;6053;51.382;6.768;2022-08-19T01:43:08;2.55;;;2.38;;
11986;SDS011;6053;51.382;6.768;2022-08-19T01:45:37;2.83;;;2.40;;
11986;SDS011;6053;51.382;6.768;2022-08-19T01:48:06;2.50;;;2.40;;
11986;SDS011;6053;51.382;6.768;2022-08-19T01:50:35;2.15;;;2.05;;
11986;SDS011;6053;51.382;6.768;2022-08-19T01:53:06;2.38;;;2.28;;
11986;SDS011;6053;51.382;6.768;2022-08-19T01:55:39;2.58;;;2.38;;
11986;SDS011;6053;51.382;6.768;2022-08-19T01:58:10;2.30;;;2.20;;
11986;SDS011;6053;51.382;6.768;2022-08-19T02:00:42;2.38;;;2.28;;
11986;SDS011;6053;51.382;6.768;2022-08-19T02:03:11;2.83;;;2.63;;
11986;SDS011;6053;51.382;6.768;2022-08-19T02:05:40;2.97;;;2.55;;
11986;SDS011;6053;51.382;6.768;2022-08-19T02:08:11;3.10;;;2.70;;
11986;SDS011;6053;51.382;6.768;2022-08-19T02:10:40;2.75;;;2.55;;
11986;SDS011;6053;51.382;6.768;2022-08-19T02:13:10;2.85;;;2.65;;
11986;SDS011;6053;51.382;6.768;2022-08-19T02:15:40;2.80;;;2.70;;
11986;SDS011;6053;51.382;6.768;2022-08-19T02:18:09;3.20;;;3.00;;
11986;SDS011;6053;51.382;6.768;2022-08-19T02:20:38;2.90;;;2.70;;
11986;SDS011;6053;51.382;6.768;2022-08-19T02:23:08;2.80;;;2.50;;
11986;SDS011;6053;51.382;6.768;2022-08-19T02:25:41;2.50;;;2.40;;
11986;SDS011;6053;51.382;6.768;2022-08-19T02:28:11;3.25;;;2.95;;
11986;SDS011;6053;51.382;6.768;2022-08-19T02:30:44;2.90;;;2.70;;
11986;SDS011;6053;51.382;6.768;2022-08-19T02:33:14;3.15;;;2.95;;
11986;SDS011;6053;51.382;6.768;2022-08-19T02:35:44;3.00;;;2.80;;
11986;SDS011;6053;51.382;6.768;2022-08-19T02:38:14;3.13;;;2.92;;
11986;SDS011;6053;51.382;6.768;2022-08-19T02:40:55;2.63;;;2.45;;
11986;SDS011;6053;51.382;6.768;2022-08-19T02:43:25;2.87;;;2.67;;
11986;SDS011;6053;51.382;6.768;2022-08-19T02:45:59;2.90;;;2.67;;
11986;SDS011;6053;51.382;6.768;2022-08-19T02:48:28;3.05;;;2.85;;
11986;SDS011;6053;51.382;6.768;2022-08-19T02:50:59;3.10;;;2.90;;
11986;SDS011;6053;51.382;6.768;2022-08-19T02:53:29;2.60;;;2.50;;
11986;SDS011;6053;51.382;6.768;2022-08-19T02:55:57;2.80;;;2.60;;
11986;SDS011;6053;51.382;6.768;2022-08-19T02:58:26;3.00;;;2.47;;
11986;SDS011;6053;51.382;6.768;2022-08-19T03:00:56;2.50;;;2.30;;
11986;SDS011;6053;51.382;6.768;2022-08-19T03:03:24;2.80;;;2.60;;
11986;SDS011;6053;51.382;6.768;2022-08-19T03:06:02;3.85;;;2.55;;
11986;SDS011;6053;51.382;6.768;2022-08-19T03:08:37;2.50;;;2.40;;
11986;SDS011;6053;51.382;6.768;2022-08-19T03:11:12;2.30;;;2.20;;
11986;SDS011;6053;51.382;6.768;2022-08-19T03:13:42;2.85;;;2.65;;
11986;SDS011;6053;51.382;6.768;2022-08-19T03:16:10;2.65;;;2.45;;
11986;SDS011;6053;51.382;6.768;2022-08-19T03:18:40;2.30;;;2.20;;
11986;SDS011;6053;51.382;6.768;2022-08-19T03:21:09;2.70;;;2.50;;
11986;SDS011;6053;51.382;6.768;2022-08-19T03:23:43;2.50;;;2.40;;
11986;SDS011;6053;51.382;6.768;2022-08-19T03:26:12;2.90;;;2.70;;
11986;SDS011;6053;51.382;6.768;2022-08-19T03:28:42;2.88;;;2.63;;
11986;SDS011;6053;51.382;6.768;2022-08-19T03:31:22;2.77;;;2.57;;
11986;SDS011;6053;51.382;6.768;2022-08-19T03:34:11;2.80;;;2.67;;
11986;SDS011;6053;51.382;6.768;2022-08-19T03:36:41;2.70;;;2.50;;
11986;SDS011;6053;51.382;6.768;2022-08-19T03:39:12;2.85;;;2.65;;
11986;SDS011;6053;51.382;6.768;2022-08-19T03:41:42;2.95;;;2.75;;
11986;SDS011;6053;51.382;6.768;2022-08-19T03:44:14;2.90;;;2.70;;
11986;SDS011;6053;51.382;6.768;2022-08-19T03:46:46;2.83;;;2.67;;
11986;SDS011;6053;51.382;6.768;2022-08-19T03:49:17;3.03;;;2.83;;
11986;SDS011;6053;51.382;6.768;2022-08-19T03:51:53;2.75;;;2.55;;
11986;SDS011;6053;51.382;6.768;2022-08-19T03:54:24;2.95;;;2.75;;
11986;SDS011;6053;51.382;6.768;2022-08-19T03:56:55;3.10;;;2.90;;
11986;SDS011;6053;51.382;6.768;2022-08-19T03:59:25;2.92;;;2.72;;
11986;SDS011;6053;51.382;6.768;2022-08-19T04:01:57;2.97;;;2.78;;
11986;SDS011;6053;51.382;6.768;2022-08-19T04:04:28;2.90;;;2.67;;
11986;SDS011;6053;51.382;6.768;2022-08-19T04:06:57;2.97;;;2.78;;
11986;SDS011;6053;51.382;6.768;2022-08-19T04:09:27;3.73;;;3.27;;
11986;SDS011;6053;51.382;6.768;2022-08-19T04:11:56;3.05;;;2.80;;
11986;SDS011;6053;51.382;6.768;2022-08-19T04:14:26;3.17;;;2.90;;
11986;SDS011;6053;51.382;6.768;2022-08-19T04:16:57;3.10;;;2.90;;
11986;SDS011;6053;51.382;6.768;2022-08-19T04:19:26;3.03;;;2.83;;
11986;SDS011;6053;51.382;6.768;2022-08-19T04:21:57;3.00;;;2.80;;
11986;SDS011;6053;51.382;6.768;2022-08-19T04:24:27;2.90;;;2.70;;
11986;SDS011;6053;51.382;6.768;2022-08-19T04:26:55;3.80;;;2.83;;
11986;SDS011;6053;51.382;6.768;2022-08-19T04:29:24;3.35;;;3.15;;
11986;SDS011;6053;51.382;6.768;2022-08-19T04:31:54;2.93;;;2.77;;
11986;SDS011;6053;51.382;6.768;2022-08-19T04:34:25;3.10;;;2.88;;
11986;SDS011;6053;51.382;6.768;2022-08-19T04:36:56;2.80;;;2.63;;
11986;SDS011;6053;51.382;6.768;2022-08-19T04:39:28;3.00;;;2.80;;
11986;SDS011;6053;51.382;6.768;2022-08-19T04:42:16;3.20;;;2.93;;
11986;SDS011;6053;51.382;6.768;2022-08-19T04:45:03;3.10;;;2.90;;
11986;SDS011;6053;51.382;6.768;2022-08-19T04:47:34;3.17;;;2.88;;
11986;SDS011;6053;51.382;6.768;2022-08-19T04:50:23;3.25;;;3.00;;
11986;SDS011;6053;51.382;6.768;2022-08-19T04:52:52;3.40;;;3.10;;
11986;SDS011;6053;51.382;6.768;2022-08-19T04:55:23;3.27;;;3.07;;
11986;SDS011;6053;51.382;6.768;2022-08-19T04:57:52;3.00;;;2.80;;
11986;SDS011;6053;51.382;6.768;2022-08-19T05:00:21;3.42;;;3.13;;
11986;SDS011;6053;51.382;6.768;2022-08-19T05:02:49;3.53;;;3.15;;
11986;SDS011;6053;51.382;6.768;2022-08-19T05:05:18;3.10;;;2.80;;
11986;SDS011;6053;51.382;6.768;2022-08-19T05:07:47;5.55;;;3.40;;
11986;SDS011;6053;51.382;6.768;2022-08-19T05:10:15;3.20;;;3.00;;
11986;SDS011;6053;51.382;6.768;2022-08-19T05:12:45;3.42;;;3.22;;
11986;SDS011;6053;51.382;6.768;2022-08-19T05:15:13;3.55;;;3.25;;
11986;SDS011;6053;51.382;6.768;2022-08-19T05:17:42;3.50;;;3.20;;
11986;SDS011;6053;51.382;6.768;2022-08-19T05:20:30;3.80;;;3.47;;
11986;SDS011;6053;51.382;6.768;2022-08-19T05:23:16;3.60;;;3.40;;
11986;SDS011;6053;51.382;6.768;2022-08-19T05:25:48;4.10;;;3.70;;
11986;SDS011;6053;51.382;6.768;2022-08-19T05:28:19;4.57;;;4.27;;
11986;SDS011;6053;51.382;6.768;2022-08-19T05:30:48;4.70;;;4.30;;
11986;SDS011;6053;51.382;6.768;2022-08-19T05:33:17;4.60;;;4.10;;
11986;SDS011;6053;51.382;6.768;2022-08-19T05:35:46;4.97;;;4.57;;
11986;SDS011;6053;51.382;6.768;2022-08-19T05:38:15;5.25;;;4.85;;
11986;SDS011;6053;51.382;6.768;2022-08-19T05:40:44;5.50;;;5.03;;
11986;SDS011;6053;51.382;6.768;2022-08-19T05:43:13;7.28;;;5.88;;
11986;SDS011;6053;51.382;6.768;2022-08-19T05:45:44;6.53;;;5.93;;
11986;SDS011;6053;51.382;6.768;2022-08-19T05:48:12;7.57;;;6.35;;
11986;SDS011;6053;51.382;6.768;2022-08-19T05:50:41;7.00;;;6.43;;
11986;SDS011;6053;51.382;6.768;2022-08-19T05:53:11;8.48;;;7.72;;
11986;SDS011;6053;51.382;6.768;2022-08-19T05:55:42;9.50;;;7.95;;
11986;SDS011;6053;51.382;6.768;2022-08-19T05:58:11;10.02;;;8.27;;
11986;SDS011;6053;51.382;6.768;2022-08-19T06:00:39;10.82;;;9.15;;
11986;SDS011;6053;51.382;6.768;2022-08-19T06:03:12;9.15;;;8.20;;
11986;SDS011;6053;51.382;6.768;2022-08-19T06:05:40;12.68;;;9.50;;
11986;SDS011;6053;51.382;6.768;2022-08-19T06:08:17;10.47;;;9.47;;
11986;SDS011;6053;51.382;6.768;2022-08-19T06:11:11;11.88;;;10.43;;
11986;SDS011;6053;51.382;6.768;2022-08-19T06:13:45;11.40;;;10.20;;
11986;SDS011;6053;51.382;6.768;2022-08-19T06:16:25;13.38;;;11.30;;
11986;SDS011;6053;51.382;6.768;2022-08-19T06:18:56;10.27;;;9.27;;
11986;SDS011;6053;51.382;6.768;2022-08-19T06:21:29;13.00;;;11.60;;
11986;SDS011;6053;51.382;6.768;2022-08-19T06:23:58;10.45;;;9.35;;
11986;SDS011;6053;51.382;6.768;2022-08-19T06:26:27;9.77;;;8.80;;
11986;SDS011;6053;51.382;6.768;2022-08-19T06:28:56;14.68;;;11.00;;
11986;SDS011;6053;51.382;6.768;2022-08-19T06:31:25;15.90;;;11.82;;
11986;SDS011;6053;51.382;6.768;2022-08-19T06:33:57;12.57;;;9.73;;
11986;SDS011;6053;51.382;6.768;2022-08-19T06:36:26;13.90;;;9.95;;
11986;SDS011;6053;51.382;6.768;2022-08-19T06:39:00;10.63;;;9.52;;
11986;SDS011;6053;51.382;6.768;2022-08-19T06:41:30;13.07;;;10.65;;
11986;SDS011;6053;51.382;6.768;2022-08-19T06:44:05;11.25;;;10.15;;
11986;SDS011;6053;51.382;6.768;2022-08-19T06:46:39;10.25;;;9.25;;
11986;SDS011;6053;51.382;6.768;2022-08-19T06:49:20;12.20;;;10.77;;
11986;SDS011;6053;51.382;6.768;2022-08-19T06:51:49;14.40;;;10.23;;
11986;SDS011;6053;51.382;6.768;2022-08-19T06:54:19;10.87;;;9.47;;
11986;SDS011;6053;51.382;6.768;2022-08-19T06:56:48;17.37;;;11.93;;
11986;SDS011;6053;51.382;6.768;2022-08-19T06:59:18;13.18;;;11.48;;
11986;SDS011;6053;51.382;6.768;2022-08-19T07:01:50;12.57;;;10.23;;
11986;SDS011;6053;51.382;6.768;2022-08-19T07:04:23;12.30;;;9.82;;
11986;SDS011;6053;51.382;6.768;2022-08-19T07:06:56;14.85;;;12.02;;
11986;SDS011;6053;51.382;6.768;2022-08-19T07:09:45;16.30;;;12.57;;
11986;SDS011;6053;51.382;6.768;2022-08-19T07:12:25;12.73;;;10.75;;
11986;SDS011;6053;51.382;6.768;2022-08-19T07:14:57;13.18;;;11.45;;
11986;SDS011;6053;51.382;6.768;2022-08-19T07:17:26;17.80;;;13.20;;
11986;SDS011;6053;51.382;6.768;2022-08-19T07:19:58;14.23;;;11.65;;
11986;SDS011;6053;51.382;6.768;2022-08-19T07:22:32;15.68;;;11.55;;
11986;SDS011;6053;51.382;6.768;2022-08-19T07:25:01;16.92;;;12.57;;
11986;SDS011;6053;51.382;6.768;2022-08-19T07:27:32;12.60;;;10.05;;
11986;SDS011;6053;51.382;6.768;2022-08-19T07:30:01;14.20;;;10.68;;
11986;SDS011;6053;51.382;6.768;2022-08-19T07:32:31;10.65;;;9.65;;
11986;SDS011;6053;51.382;6.768;2022-08-19T07:35:01;11.65;;;9.07;;
11986;SDS011;6053;51.382;6.768;2022-08-19T07:37:32;10.18;;;9.07;;
11986;SDS011;6053;51.382;6.768;2022-08-19T07:40:04;10.50;;;8.15;;
11986;SDS011;6053;51.382;6.768;2022-08-19T07:42:34;9.35;;;8.10;;
11986;SDS011;6053;51.382;6.768;2022-08-19T07:45:02;9.43;;;7.95;;
11986;SDS011;6053;51.382;6.768;2022-08-19T07:47:33;10.65;;;8.55;;
11986;SDS011;6053;51.382;6.768;2022-08-19T07:50:17;9.02;;;7.85;;
11986;SDS011;6053;51.382;6.768;2022-08-19T07:52:48;11.52;;;8.40;;
11986;SDS011;6053;51.382;6.768;2022-08-19T07:55:18;8.38;;;7.57;;
11986;SDS011;6053;51.382;6.768;2022-08-19T07:58:08;9.23;;;7.68;;
11986;SDS011;6053;51.382;6.768;2022-08-19T08:00:38;9.17;;;7.00;;
11986;SDS011;6053;51.382;6.768;2022-08-19T08:03:06;9.68;;;7.43;;
11986;SDS011;6053;51.382;6.768;2022-08-19T08:05:37;8.55;;;7.68;;
11986;SDS011;6053;51.382;6.768;2022-08-19T08:08:23;7.65;;;6.50;;
11986;SDS011;6053;51.382;6.768;2022-08-19T08:11:14;7.63;;;6.40;;
11986;SDS011;6053;51.382;6.768;2022-08-19T08:13:49;7.63;;;6.25;;
11986;SDS011;6053;51.382;6.768;2022-08-19T08:16:26;7.05;;;6.35;;
11986;SDS011;6053;51.382;6.768;2022-08-19T08:18:57;6.90;;;6.13;;
11986;SDS011;6053;51.382;6.768;2022-08-19T08:21:27;7.63;;;6.50;;
11986;SDS011;6053;51.382;6.768;2022-08-19T08:23:56;7.70;;;6.65;;
11986;SDS011;6053;51.382;6.768;2022-08-19T08:26:26;7.30;;;6.05;;
11986;SDS011;6053;51.382;6.768;2022-08-19T08:28:57;6.22;;;5.63;;
11986;SDS011;6053;51.382;6.768;2022-08-19T08:31:25;6.43;;;5.82;;
11986;SDS011;6053;51.382;6.768;2022-08-19T08:33:54;7.72;;;6.15;;
11986;SDS011;6053;51.382;6.768;2022-08-19T08:36:22;9.07;;;6.73;;
11986;SDS011;6053;51.382;6.768;2022-08-19T08:38:53;7.75;;;6.78;;
11986;SDS011;6053;51.382;6.768;2022-08-19T08:41:28;7.83;;;6.27;;
11986;SDS011;6053;51.382;6.768;2022-08-19T08:44:11;9.10;;;7.22;;
11986;SDS011;6053;51.382;6.768;2022-08-19T08:46:48;9.35;;;7.38;;
11986;SDS011;6053;51.382;6.768;2022-08-19T08:49:29;8.50;;;7.60;;
11986;SDS011;6053;51.382;6.768;2022-08-19T08:52:05;6.97;;;5.50;;
11986;SDS011;6053;51.382;6.768;2022-08-19T08:54:39;9.55;;;7.68;;
11986;SDS011;6053;51.382;6.768;2022-08-19T08:57:21;10.25;;;8.13;;
11986;SDS011;6053;51.382;6.768;2022-08-19T09:00:07;8.80;;;7.60;;
11986;SDS011;6053;51.382;6.768;2022-08-19T09:02:41;10.55;;;7.70;;
11986;SDS011;6053;51.382;6.768;2022-08-19T09:05:09;9.50;;;7.07;;
11986;SDS011;6053;51.382;6.768;2022-08-19T09:07:42;9.37;;;7.37;;
11986;SDS011;6053;51.382;6.768;2022-08-19T09:10:28;8.13;;;6.50;;
11986;SDS011;6053;51.382;6.768;2022-08-19T09:13:11;7.47;;;6.07;;
11986;SDS011;6053;51.382;6.768;2022-08-19T09:15:50;12.27;;;7.15;;
11986;SDS011;6053;51.382;6.768;2022-08-19T09:18:24;7.78;;;6.47;;
11986;SDS011;6053;51.382;6.768;2022-08-19T09:20:55;7.97;;;6.47;;
11986;SDS011;6053;51.382;6.768;2022-08-19T09:23:23;6.63;;;5.80;;
11986;SDS011;6053;51.382;6.768;2022-08-19T09:25:53;6.50;;;5.63;;
11986;SDS011;6053;51.382;6.768;2022-08-19T09:28:23;8.35;;;7.22;;
11986;SDS011;6053;51.382;6.768;2022-08-19T09:30:52;10.50;;;7.68;;
11986;SDS011;6053;51.382;6.768;2022-08-19T09:33:21;11.68;;;7.57;;
11986;SDS011;6053;51.382;6.768;2022-08-19T09:35:49;5.57;;;4.97;;
11986;SDS011;6053;51.382;6.768;2022-08-19T09:38:34;7.30;;;5.55;;
11986;SDS011;6053;51.382;6.768;2022-08-19T09:41:11;5.97;;;5.38;;
11986;SDS011;6053;51.382;6.768;2022-08-19T09:43:44;9.60;;;6.50;;
11986;SDS011;6053;51.382;6.768;2022-08-19T09:46:15;8.25;;;7.00;;
11986;SDS011;6053;51.382;6.768;2022-08-19T09:48:49;8.13;;;6.93;;
11986;SDS011;6053;51.382;6.768;2022-08-19T09:51:20;10.10;;;7.40;;
11986;SDS011;6053;51.382;6.768;2022-08-19T09:53:53;9.90;;;7.43;;
11986;SDS011;6053;51.382;6.768;2022-08-19T09:56:31;9.00;;;6.90;;
11986;SDS011;6053;51.382;6.768;2022-08-19T09:59:01;7.75;;;6.82;;
11986;SDS011;6053;51.382;6.768;2022-08-19T10:01:31;9.15;;;7.05;;
11986;SDS011;6053;51.382;6.768;2022-08-19T10:04:00;10.10;;;6.95;;
11986;SDS011;6053;51.382;6.768;2022-08-19T10:06:45;8.77;;;6.60;;
11986;SDS011;6053;51.382;6.768;2022-08-19T10:09:19;8.63;;;6.15;;
11986;SDS011;6053;51.382;6.768;2022-08-19T10:12:01;7.20;;;5.93;;
11986;SDS011;6053;51.382;6.768;2022-08-19T10:14:37;7.28;;;5.80;;
11986;SDS011;6053;51.382;6.768;2022-08-19T10:17:05;8.77;;;6.20;;
11986;SDS011;6053;51.382;6.768;2022-08-19T10:19:46;7.72;;;5.95;;
11986;SDS011;6053;51.382;6.768;2022-08-19T10:22:21;7.07;;;5.93;;
11986;SDS011;6053;51.382;6.768;2022-08-19T10:24:51;6.70;;;4.68;;
11986;SDS011;6053;51.382;6.768;2022-08-19T10:27:21;4.53;;;3.70;;
11986;SDS011;6053;51.382;6.768;2022-08-19T10:29:51;5.72;;;4.95;;
11986;SDS011;6053;51.382;6.768;2022-08-19T10:32:20;4.33;;;3.93;;
11986;SDS011;6053;51.382;6.768;2022-08-19T10:34:59;7.90;;;5.97;;
11986;SDS011;6053;51.382;6.768;2022-08-19T10:37:31;6.13;;;4.80;;
11986;SDS011;6053;51.382;6.768;2022-08-19T10:40:00;5.28;;;4.18;;
11986;SDS011;6053;51.382;6.768;2022-08-19T10:42:32;4.70;;;4.30;;
11986;SDS011;6053;51.382;6.768;2022-08-19T10:45:00;5.68;;;4.43;;
11986;SDS011;6053;51.382;6.768;2022-08-19T10:47:30;4.32;;;3.95;;
11986;SDS011;6053;51.382;6.768;2022-08-19T10:49:58;3.97;;;3.67;;
11986;SDS011;6053;51.382;6.768;2022-08-19T10:52:45;3.70;;;3.08;;
11986;SDS011;6053;51.382;6.768;2022-08-19T10:55:18;5.57;;;4.10;;
11986;SDS011;6053;51.382;6.768;2022-08-19T10:58:11;4.65;;;3.88;;
11986;SDS011;6053;51.382;6.768;2022-08-19T11:00:41;4.80;;;4.00;;
11986;SDS011;6053;51.382;6.768;2022-08-19T11:03:11;3.40;;;3.15;;
11986;SDS011;6053;51.382;6.768;2022-08-19T11:05:39;4.45;;;3.38;;
11986;SDS011;6053;51.382;6.768;2022-08-19T11:08:08;5.30;;;3.33;;
11986;SDS011;6053;51.382;6.768;2022-08-19T11:10:48;2.53;;;2.10;;
11986;SDS011;6053;51.382;6.768;2022-08-19T11:13:21;4.88;;;3.33;;
11986;SDS011;6053;51.382;6.768;2022-08-19T11:15:58;3.63;;;3.25;;
11986;SDS011;6053;51.382;6.768;2022-08-19T11:18:32;5.22;;;4.38;;
11986;SDS011;6053;51.382;6.768;2022-08-19T11:21:07;2.75;;;2.53;;
11986;SDS011;6053;51.382;6.768;2022-08-19T11:23:38;2.33;;;2.13;;
11986;SDS011;6053;51.382;6.768;2022-08-19T11:26:07;2.92;;;2.28;;
11986;SDS011;6053;51.382;6.768;2022-08-19T11:28:37;3.58;;;3.03;;
11986;SDS011;6053;51.382;6.768;2022-08-19T11:31:09;5.55;;;3.60;;
11986;SDS011;6053;51.382;6.768;2022-08-19T11:33:39;2.45;;;2.25;;
11986;SDS011;6053;51.382;6.768;2022-08-19T11:36:13;3.35;;;2.45;;
11986;SDS011;6053;51.382;6.768;2022-08-19T11:38:42;3.35;;;2.53;;
11986;SDS011;6053;51.382;6.768;2022-08-19T11:41:14;6.15;;;2.92;;
11986;SDS011;6053;51.382;6.768;2022-08-19T11:43:46;3.55;;;2.40;;
11986;SDS011;6053;51.382;6.768;2022-08-19T11:46:15;3.15;;;2.13;;
11986;SDS011;6053;51.382;6.768;2022-08-19T11:48:44;3.25;;;2.67;;
11986;SDS011;6053;51.382;6.768;2022-08-19T11:51:15;2.35;;;2.15;;
11986;SDS011;6053;51.382;6.768;2022-08-19T11:53:47;3.63;;;2.70;;
11986;SDS011;6053;51.382;6.768;2022-08-19T11:56:17;1.70;;;1.37;;
11986;SDS011;6053;51.382;6.768;2022-08-19T11:58:48;3.65;;;2.35;;
11986;SDS011;6053;51.382;6.768;2022-08-19T12:01:17;2.93;;;2.30;;
11986;SDS011;6053;51.382;6.768;2022-08-19T12:03:48;3.13;;;1.80;;
11986;SDS011;6053;51.382;6.768;2022-08-19T12:06:19;2.78;;;2.28;;
11986;SDS011;6053;51.382;6.768;2022-08-19T12:08:51;3.53;;;2.25;;
11986;SDS011;6053;51.382;6.768;2022-08-19T12:11:20;4.00;;;2.20;;
11986;SDS011;6053;51.382;6.768;2022-08-19T12:13:50;3.33;;;2.20;;
11986;SDS011;6053;51.382;6.768;2022-08-19T12:16:20;2.00;;;1.80;;
11986;SDS011;6053;51.382;6.768;2022-08-19T12:18:54;2.00;;;1.90;;
11986;SDS011;6053;51.382;6.768;2022-08-19T12:21:25;2.83;;;1.60;;
11986;SDS011;6053;51.382;6.768;2022-08-19T12:23:55;2.40;;;2.10;;
11986;SDS011;6053;51.382;6.768;2022-08-19T12:26:26;2.50;;;1.53;;
11986;SDS011;6053;51.382;6.768;2022-08-19T12:28:59;2.35;;;2.10;;
11986;SDS011;6053;51.382;6.768;2022-08-19T12:31:27;1.97;;;1.47;;
11986;SDS011;6053;51.382;6.768;2022-08-19T12:33:56;2.75;;;1.75;;
11986;SDS011;6053;51.382;6.768;2022-08-19T12:36:28;1.55;;;1.30;;
11986;SDS011;6053;51.382;6.768;2022-08-19T12:38:58;1.65;;;1.48;;
11986;SDS011;6053;51.382;6.768;2022-08-19T12:41:26;2.57;;;1.47;;
11986;SDS011;6053;51.382;6.768;2022-08-19T12:43:55;1.30;;;1.20;;
11986;SDS011;6053;51.382;6.768;2022-08-19T12:46:25;2.00;;;1.50;;
11986;SDS011;6053;51.382;6.768;2022-08-19T12:48:54;1.70;;;1.60;;
11986;SDS011;6053;51.382;6.768;2022-08-19T12:51:23;1.37;;;1.27;;
11986;SDS011;6053;51.382;6.768;2022-08-19T12:53:53;3.00;;;1.63;;
11986;SDS011;6053;51.382;6.768;2022-08-19T12:56:21;1.98;;;1.60;;
11986;SDS011;6053;51.382;6.768;2022-08-19T12:58:50;1.30;;;1.20;;
11986;SDS011;6053;51.382;6.768;2022-08-19T13:01:19;1.63;;;1.52;;
11986;SDS011;6053;51.382;6.768;2022-08-19T13:03:50;2.53;;;1.90;;
11986;SDS011;6053;51.382;6.768;2022-08-19T13:06:19;1.60;;;1.50;;
11986;SDS011;6053;51.382;6.768;2022-08-19T13:08:49;1.80;;;1.37;;
11986;SDS011;6053;51.382;6.768;2022-08-19T13:11:23;1.40;;;1.30;;
11986;SDS011;6053;51.382;6.768;2022-08-19T13:13:52;1.60;;;1.50;;
11986;SDS011;6053;51.382;6.768;2022-08-19T13:16:21;1.85;;;1.38;;
11986;SDS011;6053;51.382;6.768;2022-08-19T13:18:51;1.98;;;1.13;;
11986;SDS011;6053;51.382;6.768;2022-08-19T13:21:20;2.00;;;1.80;;
11986;SDS011;6053;51.382;6.768;2022-08-19T13:23:50;2.30;;;1.67;;
11986;SDS011;6053;51.382;6.768;2022-08-19T13:26:19;2.33;;;1.80;;
11986;SDS011;6053;51.382;6.768;2022-08-19T13:28:48;4.00;;;1.33;;
11986;SDS011;6053;51.382;6.768;2022-08-19T13:31:35;2.35;;;1.90;;
11986;SDS011;6053;51.382;6.768;2022-08-19T13:34:30;2.75;;;1.67;;
11986;SDS011;6053;51.382;6.768;2022-08-19T13:37:00;1.42;;;1.30;;
11986;SDS011;6053;51.382;6.768;2022-08-19T13:39:30;1.80;;;1.40;;
11986;SDS011;6053;51.382;6.768;2022-08-19T13:41:59;1.00;;;1.00;;
11986;SDS011;6053;51.382;6.768;2022-08-19T13:44:30;4.25;;;1.80;;
11986;SDS011;6053;51.382;6.768;2022-08-19T13:47:02;2.00;;;1.30;;
11986;SDS011;6053;51.382;6.768;2022-08-19T13:49:34;1.60;;;1.50;;
11986;SDS011;6053;51.382;6.768;2022-08-19T13:52:03;2.47;;;1.30;;
11986;SDS011;6053;51.382;6.768;2022-08-19T13:54:32;1.42;;;0.93;;
11986;SDS011;6053;51.382;6.768;2022-08-19T13:57:01;1.08;;;1.00;;
11986;SDS011;6053;51.382;6.768;2022-08-19T13:59:30;1.75;;;1.23;;
11986;SDS011;6053;51.382;6.768;2022-08-19T14:01:58;1.33;;;1.20;;
11986;SDS011;6053;51.382;6.768;2022-08-19T14:04:28;1.05;;;1.05;;
11986;SDS011;6053;51.382;6.768;2022-08-19T14:06:58;2.25;;;1.48;;
11986;SDS011;6053;51.382;6.768;2022-08-19T14:09:27;2.80;;;1.77;;
11986;SDS011;6053;51.382;6.768;2022-08-19T14:11:55;1.70;;;1.30;;
11986;SDS011;6053;51.382;6.768;2022-08-19T14:14:24;1.75;;;0.98;;
11986;SDS011;6053;51.382;6.768;2022-08-19T14:16:52;1.80;;;1.40;;
11986;SDS011;6053;51.382;6.768;2022-08-19T14:19:20;1.67;;;1.20;;
11986;SDS011;6053;51.382;6.768;2022-08-19T14:21:49;2.33;;;1.30;;
11986;SDS011;6053;51.382;6.768;2022-08-19T14:24:19;1.25;;;1.25;;
11986;SDS011;6053;51.382;6.768;2022-08-19T14:26:48;0.98;;;0.95;;
11986;SDS011;6053;51.382;6.768;2022-08-19T14:29:17;1.50;;;1.40;;
11986;SDS011;6053;51.382;6.768;2022-08-19T14:31:45;1.17;;;1.02;;
11986;SDS011;6053;51.382;6.768;2022-08-19T14:34:14;1.40;;;1.30;;
11986;SDS011;6053;51.382;6.768;2022-08-19T14:36:43;1.55;;;1.00;;
11986;SDS011;6053;51.382;6.768;2022-08-19T14:39:15;1.40;;;1.30;;
11986;SDS011;6053;51.382;6.768;2022-08-19T14:41:44;3.45;;;1.20;;
11986;SDS011;6053;51.382;6.768;2022-08-19T14:44:13;2.10;;;1.40;;
11986;SDS011;6053;51.382;6.768;2022-08-19T14:46:41;1.30;;;1.20;;
11986;SDS011;6053;51.382;6.768;2022-08-19T14:49:14;1.92;;;1.20;;
11986;SDS011;6053;51.382;6.768;2022-08-19T14:51:44;1.35;;;1.10;;
11986;SDS011;6053;51.382;6.768;2022-08-19T14:54:13;1.35;;;1.13;;
11986;SDS011;6053;51.382;6.768;2022-08-19T14:56:42;1.90;;;1.30;;
11986;SDS011;6053;51.382;6.768;2022-08-19T14:59:12;1.58;;;1.17;;
11986;SDS011;6053;51.382;6.768;2022-08-19T15:01:40;1.33;;;0.98;;
11986;SDS011;6053;51.382;6.768;2022-08-19T15:04:09;2.75;;;1.33;;
11986;SDS011;6053;51.382;6.768;2022-08-19T15:06:37;1.10;;;0.97;;
11986;SDS011;6053;51.382;6.768;2022-08-19T15:09:08;0.80;;;0.80;;
11986;SDS011;6053;51.382;6.768;2022-08-19T15:11:37;1.02;;;0.95;;
11986;SDS011;6053;51.382;6.768;2022-08-19T15:14:06;1.42;;;1.10;;
11986;SDS011;6053;51.382;6.768;2022-08-19T15:16:37;2.07;;;1.00;;
11986;SDS011;6053;51.382;6.768;2022-08-19T15:19:08;3.08;;;1.13;;
11986;SDS011;6053;51.382;6.768;2022-08-19T15:21:38;1.13;;;1.00;;
11986;SDS011;6053;51.382;6.768;2022-08-19T15:24:06;1.10;;;1.10;;
11986;SDS011;6053;51.382;6.768;2022-08-19T15:26:35;1.70;;;0.90;;